Time;durP1;ratioP1;P1;durP2;ratioP2;P2;SDS_P1;SDS_P2;PMS_P1;PMS_P2;Temp;Humidity;BMP_temperature;BMP_pressure;BME280_temperature;BME280_humidity;BME280_pressure;Samples;Min_cycle;Max_cycle;Signal;HPM_P1;HPM_P2
2021/12/11 00:02:18;;;;;;;31.92;21.42;;;-0.70;99.90;;;;;;4964387;28;20043;-82
2021/12/11 00:04:47;;;;;;;31.73;21.63;;;-0.70;99.90;;;;;;4964499;28;20043;-82
2021/12/11 00:07:16;;;;;;;33.45;21.85;;;-0.70;99.90;;;;;;4964019;28;20403;-82
2021/12/11 00:10:09;;;;;;;29.75;20.00;;;-0.90;99.90;;;;;;4979867;28;20175;-82
2021/12/11 00:12:44;;;;;;;62.50;32.03;;;-0.90;99.90;;;;;;4964121;28;20046;-82
2021/12/11 00:15:18;;;;;;;29.80;19.30;;;-1.00;99.90;;;;;;4983743;28;20049;-82
2021/12/11 00:17:44;;;;;;;30.30;19.10;;;-1.00;99.90;;;;;;4984117;28;20049;-82
2021/12/11 00:20:20;;;;;;;28.55;18.30;;;-1.10;99.90;;;;;;4983427;28;20042;-82
2021/12/11 00:22:47;;;;;;;78.97;40.05;;;-1.20;99.90;;;;;;4983838;28;20462;-82
2021/12/11 00:25:14;;;;;;;67.47;35.72;;;-1.20;99.90;;;;;;4983251;28;20088;-83
2021/12/11 00:27:44;;;;;;;58.35;31.13;;;-0.30;99.90;;;;;;4984343;28;20525;-83
2021/12/11 00:30:18;;;;;;;49.65;29.27;;;-0.40;99.90;;;;;;4984005;28;20042;-83
2021/12/11 00:32:44;;;;;;;67.50;37.17;;;-1.30;99.90;;;;;;4983373;28;20046;-83
2021/12/11 00:35:15;;;;;;;48.47;27.50;;;-0.50;99.90;;;;;;4966841;28;20572;-83
2021/12/11 00:37:41;;;;;;;33.92;21.35;;;-1.30;99.90;;;;;;4982894;28;20042;-83
2021/12/11 00:40:22;;;;;;;29.08;19.23;;;-0.90;99.90;;;;;;4982719;28;20513;-83
2021/12/11 00:42:50;;;;;;;29.85;20.02;;;-1.30;99.90;;;;;;4982698;28;20121;-83
2021/12/11 00:45:21;;;;;;;32.50;20.33;;;-1.40;99.90;;;;;;4983382;28;20401;-83
2021/12/11 00:47:51;;;;;;;29.50;19.80;;;-1.30;99.90;;;;;;4983615;28;20509;-83
2021/12/11 00:50:21;;;;;;;31.67;20.15;;;-1.30;99.90;;;;;;4983031;28;20042;-83
2021/12/11 00:52:54;;;;;;;32.17;21.20;;;-1.40;99.90;;;;;;4983059;28;20042;-83
2021/12/11 00:55:31;;;;;;;31.30;20.65;;;-1.40;99.90;;;;;;4998565;28;20098;-83
2021/12/11 00:58:06;;;;;;;30.38;19.65;;;-1.40;99.90;;;;;;4983428;28;20039;-83
2021/12/11 01:00:38;;;;;;;29.60;19.85;;;-1.40;99.90;;;;;;4999737;28;20051;-83
2021/12/11 01:03:04;;;;;;;29.63;19.42;;;-1.30;99.90;;;;;;4982741;28;20039;-83
2021/12/11 01:05:42;;;;;;;30.67;20.30;;;-1.30;99.90;;;;;;4982981;28;20038;-83
2021/12/11 01:08:24;;;;;;;32.03;20.73;;;-1.30;99.90;;;;;;4982697;28;20042;-83
2021/12/11 01:10:54;;;;;;;27.83;19.73;;;-1.30;99.90;;;;;;4982799;28;20053;-83
2021/12/11 01:13:24;;;;;;;33.67;20.58;;;-1.40;99.90;;;;;;4983118;28;20406;-83
2021/12/11 01:15:55;;;;;;;32.25;20.92;;;-1.30;99.90;;;;;;4983661;28;20042;-83
2021/12/11 01:18:34;;;;;;;32.78;20.77;;;-1.50;99.90;;;;;;4983586;28;20046;-83
2021/12/11 01:21:31;;;;;;;35.90;21.98;;;-1.50;99.90;;;;;;4983264;28;20066;-83
2021/12/11 01:26:46;;;;;;;32.55;19.23;;;-1.50;99.90;;;;;;4983355;28;20057;-83
2021/12/11 01:29:13;;;;;;;32.10;20.48;;;-1.60;99.90;;;;;;4983865;28;20438;-83
2021/12/11 01:31:39;;;;;;;31.17;20.20;;;-0.80;99.90;;;;;;4967198;28;20100;-83
2021/12/11 01:34:06;;;;;;;33.00;20.30;;;-1.60;99.90;;;;;;4967966;28;20152;-83
2021/12/11 01:36:33;;;;;;;29.35;19.45;;;-1.60;99.90;;;;;;4984539;28;20414;-83
2021/12/11 01:39:03;;;;;;;31.92;20.15;;;-1.60;99.90;;;;;;4984066;28;20098;-83
2021/12/11 01:41:29;;;;;;;29.63;19.15;;;-1.60;99.90;;;;;;4983125;28;20035;-83
2021/12/11 01:43:59;;;;;;;33.38;20.70;;;-1.60;99.90;;;;;;4999911;28;20066;-83
2021/12/11 01:46:26;;;;;;;35.75;22.65;;;-0.90;99.90;;;;;;4982879;28;20054;-83
2021/12/11 01:48:58;;;;;;;34.22;20.00;;;-1.60;99.90;;;;;;4982687;28;20046;-83
2021/12/11 01:51:27;;;;;;;37.80;24.70;;;-1.00;99.90;;;;;;4966736;28;20128;-83
2021/12/11 01:54:12;;;;;;;32.45;20.42;;;-1.10;99.90;;;;;;4966496;28;20042;-83
2021/12/11 01:56:41;;;;;;;30.77;19.92;;;-1.60;99.90;;;;;;4966715;28;20100;-83
2021/12/11 01:59:25;;;;;;;32.20;20.00;;;-1.60;99.90;;;;;;4982835;28;20055;-83
2021/12/11 02:02:20;;;;;;;32.47;20.80;;;-1.60;99.90;;;;;;4983313;28;20051;-83
2021/12/11 02:04:50;;;;;;;33.67;20.60;;;-1.50;99.90;;;;;;4966268;28;20057;-83
2021/12/11 02:07:47;;;;;;;30.15;20.02;;;-1.50;99.90;;;;;;4999002;28;20046;-82
2021/12/11 02:10:23;;;;;;;31.88;19.80;;;-1.40;99.90;;;;;;4965955;28;20411;-82
2021/12/11 02:12:51;;;;;;;30.75;19.80;;;-1.40;99.90;;;;;;4967039;28;20124;-82
2021/12/11 02:15:29;;;;;;;31.48;19.58;;;-1.50;99.90;;;;;;4965867;28;20111;-82
2021/12/11 02:18:10;;;;;;;29.30;19.48;;;-1.40;99.90;;;;;;4966233;28;20045;-83
2021/12/11 02:20:48;;;;;;;28.50;19.80;;;-1.40;99.90;;;;;;4998883;28;20501;-83
2021/12/11 02:23:15;;;;;;;28.70;20.17;;;-1.40;99.90;;;;;;4998789;28;20042;-83
2021/12/11 02:25:46;;;;;;;29.65;20.08;;;-1.40;99.90;;;;;;4998094;28;20049;-83
2021/12/11 02:28:23;;;;;;;29.13;20.17;;;-1.50;99.90;;;;;;4966378;28;20053;-83
2021/12/11 02:31:07;;;;;;;27.38;18.70;;;-1.50;99.90;;;;;;4982595;28;20390;-83
2021/12/11 02:33:39;;;;;;;30.65;19.35;;;-1.50;99.90;;;;;;4966464;28;20129;-83
2021/12/11 02:36:13;;;;;;;34.38;20.88;;;-1.50;99.90;;;;;;4998615;28;20074;-83
2021/12/11 02:38:39;;;;;;;28.27;19.15;;;-1.50;99.90;;;;;;4966179;28;20042;-83
2021/12/11 02:41:14;;;;;;;30.77;19.98;;;-1.10;99.90;;;;;;4998157;28;20048;-83
2021/12/11 02:43:57;;;;;;;30.25;19.73;;;-0.90;99.90;;;;;;4998742;28;20504;-83
2021/12/11 02:46:36;;;;;;;28.52;19.30;;;-1.60;99.90;;;;;;4998657;28;20426;-83
2021/12/11 02:49:34;;;;;;;29.92;19.55;;;-1.60;99.90;;;;;;4966354;28;20082;-83
2021/12/11 02:52:10;;;;;;;37.75;22.55;;;-1.60;99.90;;;;;;4962808;28;20494;-83
2021/12/11 02:54:40;;;;;;;40.83;24.27;;;-1.60;99.90;;;;;;4998912;28;20042;-83
2021/12/11 02:57:29;;;;;;;30.55;19.73;;;-1.30;99.90;;;;;;4982476;28;20042;-83
2021/12/11 02:59:55;;;;;;;29.88;18.95;;;-1.60;99.90;;;;;;4965951;28;20054;-83
2021/12/11 03:02:26;;;;;;;28.50;18.90;;;-1.30;99.90;;;;;;4998938;28;20049;-83
2021/12/11 03:04:57;;;;;;;30.55;19.08;;;-1.70;99.90;;;;;;4966288;28;20108;-83
2021/12/11 03:07:35;;;;;;;29.60;19.45;;;-1.70;99.90;;;;;;4952058;28;20061;-83
2021/12/11 03:10:07;;;;;;;30.73;20.20;;;-1.70;99.90;;;;;;4982316;28;20046;-83
2021/12/11 03:12:34;;;;;;;29.67;19.50;;;-1.60;99.90;;;;;;4982633;28;20046;-83
2021/12/11 03:15:00;;;;;;;31.90;19.75;;;-1.60;99.90;;;;;;4983106;28;20501;-83
2021/12/11 03:17:27;;;;;;;32.33;21.08;;;-1.70;99.90;;;;;;4982871;28;20063;-83
2021/12/11 03:19:54;;;;;;;29.13;19.80;;;-1.60;99.90;;;;;;4982397;28;20073;-83
2021/12/11 03:22:27;;;;;;;29.73;19.88;;;-1.60;99.90;;;;;;4965645;28;20073;-83
2021/12/11 03:24:53;;;;;;;29.73;19.10;;;-1.60;99.90;;;;;;4980900;28;20042;-83
2021/12/11 03:27:19;;;;;;;30.52;20.33;;;-1.60;99.90;;;;;;4981482;28;20042;-83
2021/12/11 03:29:44;;;;;;;31.15;21.23;;;-1.70;99.90;;;;;;4981727;28;20046;-83
2021/12/11 03:32:13;;;;;;;30.58;20.50;;;-1.70;99.90;;;;;;4982665;28;20184;-83
2021/12/11 03:34:40;;;;;;;30.05;19.95;;;-1.80;99.90;;;;;;4981400;28;20066;-83
2021/12/11 03:37:08;;;;;;;33.55;20.30;;;-1.80;99.90;;;;;;4965436;28;20482;-83
2021/12/11 03:39:42;;;;;;;29.88;19.45;;;-1.40;99.90;;;;;;4980902;28;20043;-83
2021/12/11 03:42:13;;;;;;;30.90;19.98;;;-2.00;99.90;;;;;;4980181;28;20034;-83
2021/12/11 03:44:40;;;;;;;30.42;19.90;;;-1.80;99.90;;;;;;4980572;28;20074;-83
2021/12/11 03:47:15;;;;;;;34.33;21.27;;;-2.00;99.90;;;;;;4964690;28;20062;-83
2021/12/11 03:49:41;;;;;;;36.55;23.17;;;-2.00;99.90;;;;;;4996392;28;20043;-83
2021/12/11 03:52:09;;;;;;;33.90;22.23;;;-2.00;99.90;;;;;;4997601;28;20375;-83
2021/12/11 03:54:39;;;;;;;35.45;22.15;;;-2.00;99.90;;;;;;4981197;28;20046;-84
2021/12/11 03:57:07;;;;;;;37.17;21.08;;;-1.40;99.90;;;;;;4996926;28;20170;-84
2021/12/11 03:59:33;;;;;;;36.10;21.38;;;-1.80;99.90;;;;;;4981202;28;20494;-84
2021/12/11 04:02:06;;;;;;;35.53;21.65;;;-1.80;99.90;;;;;;4965711;28;20042;-84
2021/12/11 04:04:40;;;;;;;38.25;21.83;;;-2.10;99.90;;;;;;4981233;28;20077;-84
2021/12/11 04:07:11;;;;;;;36.80;22.17;;;-2.10;99.90;;;;;;4997538;28;20449;-84
2021/12/11 04:09:37;;;;;;;33.80;21.80;;;-1.30;99.90;;;;;;4965713;28;20042;-84
2021/12/11 04:12:05;;;;;;;35.20;22.15;;;-1.70;99.90;;;;;;4996407;28;20483;-84
2021/12/11 04:14:34;;;;;;;38.53;24.10;;;-2.10;99.90;;;;;;4964653;28;20051;-84
2021/12/11 04:17:01;;;;;;;39.03;24.05;;;-2.10;99.90;;;;;;4996676;28;20034;-84
2021/12/11 04:19:27;;;;;;;42.05;26.10;;;-2.10;99.90;;;;;;4997542;28;20098;-84
2021/12/11 04:21:54;;;;;;;40.55;24.85;;;-2.00;99.90;;;;;;4964846;28;20043;-84
2021/12/11 04:24:25;;;;;;;40.40;24.67;;;-1.30;99.90;;;;;;4965237;28;20398;-84
2021/12/11 04:26:52;;;;;;;37.10;22.48;;;-2.00;99.90;;;;;;4980832;28;20050;-84
2021/12/11 04:29:19;;;;;;;34.70;21.92;;;-1.60;99.90;;;;;;4981049;28;20053;-84
2021/12/11 04:31:47;;;;;;;37.65;22.55;;;-1.80;99.90;;;;;;4965001;28;20046;-84
2021/12/11 04:34:15;;;;;;;36.72;22.00;;;-1.80;99.90;;;;;;4965377;28;20050;-84
2021/12/11 04:36:45;;;;;;;34.30;21.45;;;-2.00;99.90;;;;;;4997462;28;20046;-84
2021/12/11 04:39:14;;;;;;;37.65;22.70;;;-2.00;99.90;;;;;;4984896;28;20105;-84
2021/12/11 04:41:51;;;;;;;37.20;22.83;;;-2.00;99.90;;;;;;4984626;28;20085;-84
2021/12/11 04:44:32;;;;;;;45.33;25.63;;;-2.00;99.90;;;;;;4984169;28;20052;-84
2021/12/11 04:46:58;;;;;;;38.65;23.90;;;-2.00;99.90;;;;;;4984585;28;20073;-84
2021/12/11 04:49:35;;;;;;;51.67;27.55;;;-1.40;99.90;;;;;;4984635;28;20405;-84
2021/12/11 04:52:08;;;;;;;43.13;25.17;;;-2.00;99.90;;;;;;4983810;28;20049;-84
2021/12/11 05:00:07;;;;;;;64.22;34.92;;;-2.00;99.90;;;;;;4970764;28;20062;-84
2021/12/11 05:11:08;;;;;;;68.40;35.03;;;-1.20;99.90;;;;;;4969446;28;20402;-84
2021/12/11 05:13:35;;;;;;;61.67;34.10;;;-1.00;99.90;;;;;;4970429;28;20073;-84
2021/12/11 05:16:08;;;;;;;50.42;30.63;;;-1.90;99.90;;;;;;4970583;28;20042;-84
2021/12/11 05:18:37;;;;;;;52.30;30.35;;;-1.90;99.90;;;;;;4986172;28;20035;-84
2021/12/11 05:21:14;;;;;;;46.47;27.65;;;-2.00;99.90;;;;;;4969956;28;20049;-84
2021/12/11 05:23:40;;;;;;;46.15;28.73;;;-2.00;99.90;;;;;;4985799;28;20196;-84
2021/12/11 05:26:06;;;;;;;44.58;27.23;;;-2.00;99.90;;;;;;4969434;28;20540;-84
2021/12/11 05:28:33;;;;;;;62.53;33.55;;;-2.00;99.90;;;;;;4985731;28;20042;-84
2021/12/11 05:31:02;;;;;;;46.40;27.65;;;-2.10;99.90;;;;;;5003112;28;20372;-84
2021/12/11 05:33:28;;;;;;;51.60;29.58;;;-2.10;99.90;;;;;;4970687;28;20050;-84
2021/12/11 05:35:54;;;;;;;45.90;28.35;;;-2.00;99.90;;;;;;5004283;28;20101;-84
2021/12/11 05:38:24;;;;;;;41.17;24.88;;;-2.00;99.90;;;;;;4990749;28;20066;-84
2021/12/11 05:40:54;;;;;;;45.90;26.23;;;-2.00;99.90;;;;;;4989998;28;20098;-84
2021/12/11 05:43:20;;;;;;;56.75;31.38;;;-1.60;99.90;;;;;;5003697;28;20458;-84
2021/12/11 05:45:46;;;;;;;53.10;30.23;;;-1.90;99.90;;;;;;5002366;28;20046;-84
2021/12/11 05:48:15;;;;;;;50.25;29.45;;;-1.90;99.90;;;;;;4985526;28;20042;-84
2021/12/11 05:50:48;;;;;;;72.95;38.42;;;-1.70;99.90;;;;;;4969743;28;20038;-84
2021/12/11 05:53:17;;;;;;;62.35;33.13;;;-1.80;99.90;;;;;;4986528;28;20045;-84
2021/12/11 05:55:45;;;;;;;48.95;29.35;;;-1.80;99.90;;;;;;5001661;28;20042;-84
2021/12/11 05:58:13;;;;;;;55.30;30.30;;;-1.90;99.90;;;;;;4986769;28;20042;-84
2021/12/11 06:00:46;;;;;;;46.30;28.90;;;-1.90;99.90;;;;;;4948903;28;20054;-84
2021/12/11 06:03:13;;;;;;;69.18;36.38;;;-1.90;99.90;;;;;;4965407;29;20046;-84
2021/12/11 06:05:40;;;;;;;52.10;30.98;;;-1.90;99.90;;;;;;4964981;28;20514;-84
2021/12/11 06:08:07;;;;;;;45.00;28.60;;;-1.00;99.90;;;;;;4948811;29;20047;-84
2021/12/11 06:10:33;;;;;;;45.95;28.95;;;-1.40;99.90;;;;;;4948461;29;20043;-84
2021/12/11 06:13:00;;;;;;;54.22;32.05;;;-1.60;99.90;;;;;;4932986;29;20491;-84
2021/12/11 06:15:26;;;;;;;45.33;27.67;;;-1.90;99.90;;;;;;4933727;29;20043;-84
2021/12/11 06:17:53;;;;;;;43.33;27.40;;;-2.00;99.90;;;;;;4965215;29;20102;-84
2021/12/11 06:20:24;;;;;;;42.42;26.65;;;-2.00;99.90;;;;;;4964712;29;20227;-84
2021/12/11 06:22:50;;;;;;;40.10;25.63;;;-1.20;99.90;;;;;;4964827;29;20079;-84
2021/12/11 06:25:26;;;;;;;37.50;24.40;;;-2.00;99.90;;;;;;4949067;29;20379;-84
2021/12/11 06:27:52;;;;;;;43.35;25.10;;;-2.00;99.90;;;;;;4948402;29;20525;-84
2021/12/11 06:30:19;;;;;;;39.20;24.30;;;-1.20;99.90;;;;;;4949761;29;20047;-84
2021/12/11 06:32:46;;;;;;;39.30;25.00;;;-1.20;99.90;;;;;;4950218;29;20476;-84
2021/12/11 06:35:26;;;;;;;36.45;23.65;;;-2.10;99.90;;;;;;4932570;29;20039;-84
2021/12/11 06:37:52;;;;;;;38.72;23.48;;;-2.10;99.90;;;;;;4927130;29;20039;-87
2021/12/11 06:40:18;;;;;;;38.13;23.25;;;-1.80;99.90;;;;;;4947422;29;20099;-87
2021/12/11 06:42:44;;;;;;;40.30;25.27;;;-2.10;99.90;;;;;;4936050;29;20491;-88
2021/12/11 06:45:10;;;;;;;40.90;25.50;;;-2.00;99.90;;;;;;4938258;29;20126;-86
2021/12/11 06:47:36;;;;;;;39.33;25.23;;;-2.10;99.90;;;;;;4938774;29;20050;-86
2021/12/11 06:50:05;;;;;;;41.08;25.02;;;-2.10;99.90;;;;;;4926265;29;20158;-85
2021/12/11 06:52:31;;;;;;;38.63;23.90;;;-2.10;99.90;;;;;;4940330;29;20522;-85
2021/12/11 06:54:57;;;;;;;38.53;23.73;;;-2.10;99.90;;;;;;4972260;28;20145;-84
2021/12/11 06:57:23;;;;;;;35.88;23.08;;;-2.00;99.90;;;;;;4955667;29;20046;-84
2021/12/11 06:59:49;;;;;;;38.95;23.92;;;-2.10;99.90;;;;;;4935778;29;20055;-85
2021/12/11 07:02:17;;;;;;;35.72;23.20;;;-2.20;99.90;;;;;;4938510;29;20487;-86
2021/12/11 07:04:45;;;;;;;35.10;23.48;;;-2.20;99.90;;;;;;4969970;28;20043;-86
2021/12/11 07:07:18;;;;;;;35.30;23.30;;;-2.20;99.90;;;;;;4970437;28;20046;-86
2021/12/11 07:09:44;;;;;;;35.67;22.52;;;-2.20;99.90;;;;;;4955170;29;20039;-86
2021/12/11 07:12:11;;;;;;;40.17;24.67;;;-1.80;99.90;;;;;;4973172;28;20081;-86
2021/12/11 07:14:36;;;;;;;36.25;22.83;;;-2.20;99.90;;;;;;4972077;28;20045;-87
2021/12/11 07:17:02;;;;;;;37.28;22.90;;;-1.50;99.90;;;;;;4956574;29;20050;-86
2021/12/11 07:19:28;;;;;;;41.47;26.08;;;-2.20;99.90;;;;;;4962462;29;20043;-86
2021/12/11 07:21:55;;;;;;;40.45;24.70;;;-1.40;99.90;;;;;;4972364;28;20042;-87
2021/12/11 07:24:32;;;;;;;36.85;23.45;;;-2.30;99.90;;;;;;4955814;28;20050;-86
2021/12/11 07:27:00;;;;;;;37.60;23.55;;;-2.00;99.90;;;;;;4978147;28;20077;-86
2021/12/11 07:29:27;;;;;;;33.50;22.80;;;-2.30;99.90;;;;;;4962293;28;20121;-86
2021/12/11 07:31:53;;;;;;;36.00;22.83;;;-1.80;99.90;;;;;;4970067;28;20499;-86
2021/12/11 07:34:20;;;;;;;32.42;22.08;;;-2.30;99.90;;;;;;4967871;28;20522;-86
2021/12/11 07:36:50;;;;;;;37.20;23.45;;;-1.60;99.90;;;;;;4975611;28;20043;-84
2021/12/11 07:39:18;;;;;;;36.22;24.10;;;-2.30;99.90;;;;;;4954405;29;20041;-84
2021/12/11 07:41:45;;;;;;;31.48;22.05;;;-1.60;99.90;;;;;;4958183;29;20046;-84
2021/12/11 07:44:11;;;;;;;36.85;22.30;;;-1.70;99.90;;;;;;4949270;29;20050;-83
2021/12/11 07:46:38;;;;;;;33.28;21.75;;;-2.40;99.90;;;;;;4967466;28;20039;-83
2021/12/11 07:49:05;;;;;;;38.42;24.10;;;-2.40;99.90;;;;;;4986398;28;20046;-83
2021/12/11 07:51:33;;;;;;;36.47;23.42;;;-2.40;99.90;;;;;;4990353;28;20392;-83
2021/12/11 07:53:59;;;;;;;38.05;24.50;;;-1.40;99.90;;;;;;4990958;28;20499;-82
2021/12/11 07:56:29;;;;;;;50.53;30.23;;;-2.30;99.90;;;;;;4970629;29;20039;-86
2021/12/11 07:59:00;;;;;;;53.97;32.13;;;-1.40;99.90;;;;;;4971351;28;20086;-84
2021/12/11 08:01:28;;;;;;;43.80;26.55;;;-2.20;99.90;;;;;;4979058;28;20043;-86
2021/12/11 08:03:57;;;;;;;54.85;33.38;;;-1.30;99.90;;;;;;4991434;28;20026;-85
2021/12/11 08:06:23;;;;;;;58.10;34.20;;;-1.20;99.90;;;;;;4998063;28;20038;-84
2021/12/11 08:08:49;;;;;;;62.28;37.03;;;-1.00;99.90;;;;;;5017491;28;20049;-85
2021/12/11 08:11:17;;;;;;;66.22;39.83;;;-0.90;99.90;;;;;;4979361;28;20085;-82
2021/12/11 08:13:46;;;;;;;72.40;42.65;;;-0.80;99.90;;;;;;4984179;28;20502;-83
2021/12/11 08:16:14;;;;;;;76.10;44.90;;;-1.40;99.90;;;;;;4985116;28;20038;-83
2021/12/11 08:18:40;;;;;;;74.07;44.35;;;-1.40;99.90;;;;;;4999666;28;20018;-82
2021/12/11 08:21:09;;;;;;;90.30;50.17;;;-1.10;99.90;;;;;;4996299;28;20037;-82
2021/12/11 08:23:43;;;;;;;71.40;43.83;;;-1.00;99.90;;;;;;5009553;28;20042;-84
2021/12/11 08:26:10;;;;;;;79.00;46.42;;;-0.90;99.90;;;;;;5011090;28;20050;-83
2021/12/11 08:28:36;;;;;;;77.50;44.65;;;0.00;99.90;;;;;;4992206;28;20081;-83
2021/12/11 08:31:02;;;;;;;96.10;53.58;;;-0.70;99.90;;;;;;4982477;28;20245;-83
2021/12/11 08:33:28;;;;;;;85.72;50.63;;;-0.50;99.90;;;;;;4964934;28;20102;-84
2021/12/11 08:35:55;;;;;;;121.45;60.60;;;0.10;99.90;;;;;;4967641;28;20057;-83
2021/12/11 08:38:21;;;;;;;98.65;57.60;;;-0.30;99.90;;;;;;4964761;28;20042;-83
2021/12/11 08:40:52;;;;;;;103.53;56.92;;;-0.10;99.90;;;;;;4966628;28;20037;-84
2021/12/11 08:43:21;;;;;;;73.20;46.75;;;0.20;99.90;;;;;;4983805;28;20035;-82
2021/12/11 08:48:46;;;;;;;80.25;47.08;;;0.30;99.90;;;;;;4963333;28;20046;-85
2021/12/11 08:51:19;;;;;;;165.43;59.72;;;0.30;99.90;;;;;;4975600;28;20052;-85
2021/12/11 08:53:46;;;;;;;87.88;51.30;;;0.40;99.90;;;;;;4994426;28;20454;-86
2021/12/11 08:56:13;;;;;;;108.03;65.53;;;0.50;99.90;;;;;;4988108;28;20421;-83
2021/12/11 08:58:41;;;;;;;83.30;54.33;;;0.80;99.90;;;;;;4982195;28;20034;-82
2021/12/11 09:01:13;;;;;;;161.52;73.85;;;0.90;99.90;;;;;;4998745;28;20062;-81
2021/12/11 09:03:47;;;;;;;71.55;49.92;;;1.20;99.90;;;;;;4998863;28;20046;-81
2021/12/11 09:06:27;;;;;;;104.97;64.57;;;1.20;99.90;;;;;;4997525;28;20501;-81
2021/12/11 09:09:06;;;;;;;75.65;51.00;;;1.40;99.90;;;;;;4965833;28;20042;-82
2021/12/11 09:11:39;;;;;;;61.20;39.58;;;1.50;99.90;;;;;;4989726;28;20294;-80
2021/12/11 09:14:12;;;;;;;59.38;37.67;;;1.40;99.90;;;;;;4975450;28;20387;-80
2021/12/11 09:16:45;;;;;;;50.95;35.05;;;1.20;99.90;;;;;;4977758;28;20510;-80
2021/12/11 09:19:21;;;;;;;49.60;35.47;;;1.20;99.90;;;;;;4937901;28;20046;-80
2021/12/11 09:22:25;;;;;;;57.88;38.85;;;1.20;99.90;;;;;;4943925;28;20055;-80
2021/12/11 09:25:23;;;;;;;51.20;35.35;;;1.20;99.90;;;;;;4917736;29;20500;-81
2021/12/11 09:27:57;;;;;;;47.50;34.20;;;1.20;99.90;;;;;;4978151;28;20121;-81
2021/12/11 09:30:42;;;;;;;47.17;33.63;;;1.30;99.90;;;;;;4979101;28;20085;-81
2021/12/11 09:33:16;;;;;;;45.88;34.00;;;1.30;99.90;;;;;;4978874;28;20082;-78
2021/12/11 09:35:52;;;;;;;44.65;32.22;;;1.30;99.90;;;;;;4981282;28;20120;-83
2021/12/11 09:38:23;;;;;;;44.47;31.48;;;1.30;99.90;;;;;;5000831;28;20454;-83
2021/12/11 09:40:55;;;;;;;47.90;32.58;;;1.30;99.90;;;;;;4983183;28;20121;-84
2021/12/11 09:43:30;;;;;;;35.13;24.40;;;1.70;99.90;;;;;;4999486;28;20069;-83
2021/12/11 09:45:56;;;;;;;47.00;33.63;;;1.30;99.90;;;;;;5003101;28;20073;-83
2021/12/11 09:48:22;;;;;;;43.42;30.90;;;1.30;99.90;;;;;;4967828;28;20065;-84
2021/12/11 09:50:57;;;;;;;45.83;31.05;;;1.30;99.90;;;;;;5000631;28;20490;-83
2021/12/11 09:53:27;;;;;;;47.40;30.77;;;1.40;99.90;;;;;;4982063;28;20042;-83
2021/12/11 09:55:55;;;;;;;41.42;30.27;;;1.40;99.90;;;;;;4996778;28;20042;-83
2021/12/11 09:58:24;;;;;;;44.35;31.30;;;1.60;99.90;;;;;;4980359;28;20034;-83
2021/12/11 10:00:59;;;;;;;42.85;32.00;;;1.50;99.90;;;;;;4998202;28;20056;-83
2021/12/11 10:03:30;;;;;;;41.80;29.98;;;1.40;99.90;;;;;;5004251;28;20082;-83
2021/12/11 10:06:13;;;;;;;47.55;32.50;;;1.50;99.90;;;;;;4991800;28;20046;-82
2021/12/11 10:08:45;;;;;;;45.20;32.30;;;2.10;99.90;;;;;;4991961;28;20042;-83
2021/12/11 10:11:21;;;;;;;45.13;32.00;;;1.60;99.90;;;;;;5004982;28;20482;-83
2021/12/11 10:13:59;;;;;;;43.58;30.98;;;1.60;99.90;;;;;;5000180;28;20046;-84
2021/12/11 10:16:30;;;;;;;44.22;31.33;;;1.70;99.90;;;;;;4968547;28;20502;-83
2021/12/11 10:18:57;;;;;;;44.25;32.13;;;1.70;99.90;;;;;;4988418;28;20073;-84
2021/12/11 10:21:32;;;;;;;41.53;29.88;;;1.70;99.90;;;;;;4993618;28;20039;-84
2021/12/11 10:24:02;;;;;;;44.85;31.50;;;2.50;99.90;;;;;;4974095;28;20034;-83
2021/12/11 10:26:28;;;;;;;46.15;32.45;;;2.60;99.90;;;;;;4985281;28;20042;-84
2021/12/11 10:28:58;;;;;;;46.85;33.42;;;1.80;99.90;;;;;;4968864;28;20070;-85
2021/12/11 10:31:35;;;;;;;43.33;31.23;;;2.40;99.90;;;;;;4984724;28;20068;-84
2021/12/11 10:34:04;;;;;;;41.45;29.67;;;1.90;99.90;;;;;;5001758;28;20475;-84
2021/12/11 10:36:35;;;;;;;43.70;31.45;;;1.90;99.90;;;;;;5000945;28;20486;-85
2021/12/11 10:39:05;;;;;;;44.78;32.60;;;1.90;99.90;;;;;;5006907;28;20075;-84
2021/12/11 10:41:31;;;;;;;46.53;33.08;;;2.80;99.90;;;;;;5010060;28;20125;-82
2021/12/11 10:44:07;;;;;;;45.50;33.00;;;1.90;99.90;;;;;;4979310;28;20045;-83
2021/12/11 10:46:46;;;;;;;43.30;30.60;;;2.00;99.90;;;;;;5008336;28;20105;-83
2021/12/11 10:49:13;;;;;;;44.20;32.30;;;2.00;99.90;;;;;;4971532;28;20042;-83
2021/12/11 10:51:44;;;;;;;45.03;32.75;;;2.10;99.90;;;;;;4970319;28;20053;-85
2021/12/11 10:54:13;;;;;;;44.45;31.77;;;2.80;99.90;;;;;;4985363;28;20038;-85
2021/12/11 10:56:40;;;;;;;46.63;32.80;;;2.30;99.90;;;;;;4999373;28;20482;-84
2021/12/11 10:59:11;;;;;;;46.00;32.63;;;2.10;99.90;;;;;;4996954;28;20046;-84
2021/12/11 11:02:06;;;;;;;46.13;34.08;;;2.70;99.90;;;;;;4990599;28;20042;-83
2021/12/11 11:04:44;;;;;;;48.42;32.67;;;2.10;99.90;;;;;;4972977;28;20054;-84
2021/12/11 11:07:10;;;;;;;46.30;31.88;;;2.10;99.90;;;;;;5008137;28;20114;-84
2021/12/11 11:09:37;;;;;;;45.05;32.45;;;2.20;99.90;;;;;;4995833;28;20096;-84
2021/12/11 11:12:06;;;;;;;45.70;32.38;;;2.20;99.90;;;;;;4974156;28;20046;-84
2021/12/11 11:14:33;;;;;;;42.92;32.13;;;2.20;99.90;;;;;;4994491;28;20046;-84
2021/12/11 11:17:04;;;;;;;48.05;33.95;;;2.20;99.90;;;;;;5008613;28;20065;-84
2021/12/11 11:19:31;;;;;;;48.63;35.33;;;2.20;99.90;;;;;;4990788;28;20478;-84
2021/12/11 11:22:00;;;;;;;46.50;32.85;;;2.20;99.90;;;;;;5007924;28;20049;-84
2021/12/11 11:24:35;;;;;;;49.45;33.65;;;2.30;99.90;;;;;;4990016;28;20085;-84
2021/12/11 11:27:05;;;;;;;48.45;33.90;;;2.80;99.90;;;;;;4992972;28;20042;-83
2021/12/11 11:29:31;;;;;;;49.75;35.00;;;2.30;99.90;;;;;;4998280;28;20150;-84
2021/12/11 11:32:03;;;;;;;49.88;35.28;;;2.60;99.90;;;;;;4994530;28;20053;-84
2021/12/11 11:34:31;;;;;;;;;;;2.30;99.90;;;;;;5009415;28;20049;-84
2021/12/11 11:36:59;;;;;;;55.83;37.97;;;3.10;99.90;;;;;;4963853;28;19979;-83
2021/12/11 11:39:26;;;;;;;55.55;37.95;;;2.50;99.90;;;;;;4998283;28;20030;-83
2021/12/11 11:41:56;;;;;;;54.67;36.95;;;2.50;99.90;;;;;;4987001;28;20077;-83
2021/12/11 11:44:24;;;;;;;50.35;35.08;;;2.50;99.90;;;;;;4984537;28;20106;-83
2021/12/11 11:46:53;;;;;;;51.35;35.35;;;2.70;99.90;;;;;;4966897;28;20137;-83
2021/12/11 11:49:22;;;;;;;54.78;38.47;;;2.50;99.90;;;;;;4966927;28;20038;-83
2021/12/11 11:52:05;;;;;;;54.78;37.25;;;2.50;99.90;;;;;;4996930;28;20045;-83
2021/12/11 11:54:31;;;;;;;56.80;37.00;;;2.60;99.90;;;;;;4996655;28;20058;-83
2021/12/11 11:57:13;;;;;;;59.65;38.25;;;2.60;99.90;;;;;;4979700;28;20047;-83
2021/12/11 11:59:39;;;;;;;57.70;38.92;;;2.70;99.90;;;;;;4996536;28;20501;-83
2021/12/11 12:02:20;;;;;;;52.95;36.22;;;2.70;99.90;;;;;;4980062;28;20080;-83
2021/12/11 12:04:49;;;;;;;55.42;37.30;;;2.70;99.90;;;;;;4982190;28;20054;-84
2021/12/11 12:07:18;;;;;;;53.60;37.88;;;2.70;99.90;;;;;;4964362;28;20057;-83
2021/12/11 12:09:48;;;;;;;50.58;35.10;;;2.80;99.90;;;;;;4996713;28;20037;-83
2021/12/11 12:12:15;;;;;;;56.45;37.75;;;2.80;99.90;;;;;;4970154;28;20045;-83
2021/12/11 12:14:43;;;;;;;57.88;39.67;;;3.30;99.90;;;;;;4973583;28;20054;-84
2021/12/11 12:17:11;;;;;;;57.45;39.25;;;2.80;99.90;;;;;;4978924;28;20043;-83
2021/12/11 12:19:37;;;;;;;59.90;40.35;;;2.80;99.90;;;;;;5001891;28;20043;-84
2021/12/11 12:22:07;;;;;;;60.78;40.50;;;2.80;99.90;;;;;;4967960;28;20040;-84
2021/12/11 12:24:35;;;;;;;58.38;39.80;;;2.90;99.90;;;;;;5001426;28;20518;-84
2021/12/11 12:27:05;;;;;;;57.50;39.03;;;2.80;99.90;;;;;;4968304;28;20109;-84
2021/12/11 12:29:31;;;;;;;58.38;39.13;;;2.90;99.90;;;;;;5000972;28;20405;-84
2021/12/11 12:32:03;;;;;;;57.05;39.85;;;2.90;99.90;;;;;;4984286;28;20053;-84
2021/12/11 12:34:29;;;;;;;58.55;36.67;;;3.00;99.90;;;;;;5000320;28;20049;-84
2021/12/11 12:36:57;;;;;;;55.25;37.92;;;3.20;99.90;;;;;;4967062;28;20065;-84
2021/12/11 12:39:27;;;;;;;55.17;37.13;;;2.90;99.90;;;;;;4967252;28;20065;-84
2021/12/11 12:42:08;;;;;;;54.53;37.00;;;2.90;99.90;;;;;;4999982;28;20491;-84
2021/12/11 12:44:34;;;;;;;58.58;37.88;;;3.00;99.90;;;;;;5000230;28;20042;-84
2021/12/11 12:47:13;;;;;;;55.35;36.67;;;3.20;99.90;;;;;;4984493;28;20411;-84
2021/12/11 12:49:48;;;;;;;57.47;37.55;;;3.20;99.90;;;;;;5000904;28;20042;-84
2021/12/11 12:52:24;;;;;;;54.80;35.97;;;2.90;99.90;;;;;;4998427;28;20046;-84
2021/12/11 12:54:51;;;;;;;50.58;33.97;;;3.00;99.90;;;;;;4964464;28;20042;-84
2021/12/11 12:57:21;;;;;;;51.70;33.38;;;3.00;99.90;;;;;;4996797;28;20057;-84
2021/12/11 12:59:57;;;;;;;52.70;35.15;;;3.00;99.90;;;;;;4996749;28;20050;-84
2021/12/11 13:02:26;;;;;;;59.88;36.92;;;2.90;99.90;;;;;;4981317;28;20494;-84
2021/12/11 13:04:58;;;;;;;55.50;35.22;;;3.00;99.90;;;;;;4964816;28;20424;-84
2021/12/11 13:07:24;;;;;;;56.20;36.63;;;3.00;99.90;;;;;;4980783;28;20057;-84
2021/12/11 13:09:53;;;;;;;51.53;35.05;;;3.10;99.90;;;;;;4996942;28;20105;-84